Time;durP1;ratioP1;P1;durP2;ratioP2;P2;SDS_P1;SDS_P2;PMS_P1;PMS_P2;Temp;Humidity;BMP_temperature;BMP_pressure;BME280_temperature;BME280_humidity;BME280_pressure;Samples;Min_cycle;Max_cycle;Signal;HPM_P1;HPM_P2
2023/01/16 00:00:29;;;;;;;5.30;2.30;;;5.20;99.90;;;;;;5052357;28;20116;-75
2023/01/16 00:02:55;;;;;;;6.20;2.70;;;5.30;99.90;;;;;;5051449;28;20408;-75
2023/01/16 00:05:20;;;;;;;5.13;2.53;;;5.30;99.90;;;;;;5050935;28;20402;-75
2023/01/16 00:07:46;;;;;;;5.80;2.10;;;5.30;99.90;;;;;;5051201;28;20055;-75
2023/01/16 00:10:12;;;;;;;5.40;2.08;;;5.30;99.90;;;;;;5035731;28;20032;-75
2023/01/16 00:12:37;;;;;;;4.68;2.13;;;5.30;99.90;;;;;;5050250;28;20064;-75
2023/01/16 00:15:03;;;;;;;7.53;2.17;;;5.20;99.90;;;;;;5052012;28;20041;-75
2023/01/16 00:17:29;;;;;;;4.68;1.88;;;5.20;99.90;;;;;;5035324;28;20041;-75
2023/01/16 00:19:55;;;;;;;6.18;2.00;;;5.20;99.90;;;;;;5050598;28;20044;-75
2023/01/16 00:22:20;;;;;;;5.35;2.30;;;5.10;99.90;;;;;;5050881;28;20039;-75
2023/01/16 00:24:46;;;;;;;5.97;1.98;;;5.10;99.90;;;;;;5034901;28;20481;-75
2023/01/16 00:27:12;;;;;;;5.72;2.30;;;5.00;99.90;;;;;;5051852;28;20049;-75
2023/01/16 00:29:37;;;;;;;5.78;2.03;;;5.00;99.90;;;;;;5051063;28;20396;-75
2023/01/16 00:32:03;;;;;;;5.40;2.15;;;4.90;99.90;;;;;;5034490;28;20507;-75
2023/01/16 00:34:28;;;;;;;5.03;2.05;;;4.90;99.90;;;;;;5051790;28;20052;-75
2023/01/16 00:36:54;;;;;;;6.88;2.22;;;4.90;99.90;;;;;;5050473;28;20076;-75
2023/01/16 00:39:20;;;;;;;7.03;2.28;;;4.80;99.90;;;;;;5067486;28;20041;-75
2023/01/16 00:41:45;;;;;;;6.55;2.28;;;4.80;99.90;;;;;;5035211;28;20049;-75
2023/01/16 00:44:11;;;;;;;9.20;2.38;;;4.80;99.90;;;;;;5051719;28;20528;-75
2023/01/16 00:46:36;;;;;;;4.78;1.80;;;4.80;99.90;;;;;;5051639;28;20051;-75
2023/01/16 00:49:02;;;;;;;4.90;1.90;;;4.80;99.90;;;;;;5067400;28;20048;-75
2023/01/16 00:51:27;;;;;;;4.32;1.90;;;4.80;99.90;;;;;;5068633;28;20045;-75
2023/01/16 00:53:53;;;;;;;8.38;2.78;;;4.80;99.90;;;;;;5041942;28;20099;-75
2023/01/16 00:56:19;;;;;;;5.28;2.03;;;4.70;99.90;;;;;;5019392;28;20056;-75
2023/01/16 00:58:44;;;;;;;5.97;2.00;;;4.70;99.90;;;;;;5035316;28;20513;-75
2023/01/16 01:01:10;;;;;;;7.00;2.47;;;4.70;99.90;;;;;;5035607;28;20090;-76
2023/01/16 01:03:36;;;;;;;5.18;1.85;;;4.70;99.90;;;;;;5018990;28;20479;-76
2023/01/16 01:06:11;;;;;;;5.28;1.95;;;4.70;99.90;;;;;;5045138;28;20057;-76
2023/01/16 01:08:36;;;;;;;6.50;2.03;;;4.70;99.90;;;;;;5054509;28;20033;-76
2023/01/16 01:11:21;;;;;;;6.28;1.88;;;4.60;99.90;;;;;;5055282;28;20098;-76
2023/01/16 01:13:46;;;;;;;5.47;1.95;;;4.60;99.90;;;;;;5053925;28;20041;-75
2023/01/16 01:16:13;;;;;;;4.30;1.77;;;4.60;99.90;;;;;;5038745;28;20397;-75
2023/01/16 01:18:39;;;;;;;4.53;2.10;;;4.70;99.90;;;;;;5037815;28;20041;-75
2023/01/16 01:21:05;;;;;;;5.43;2.00;;;4.60;99.90;;;;;;5038629;28;20493;-75
2023/01/16 01:23:31;;;;;;;4.88;1.80;;;4.60;99.90;;;;;;5054105;28;20547;-75
2023/01/16 01:25:56;;;;;;;5.43;2.08;;;4.50;99.90;;;;;;5055201;28;20044;-76
2023/01/16 01:28:22;;;;;;;7.00;2.05;;;4.50;99.90;;;;;;5053403;28;20037;-75
2023/01/16 01:30:48;;;;;;;4.95;1.80;;;4.50;99.90;;;;;;5053861;28;20095;-75
2023/01/16 01:33:13;;;;;;;5.13;2.05;;;4.50;99.90;;;;;;5053342;28;20497;-75
2023/01/16 01:35:39;;;;;;;9.85;2.10;;;4.50;99.90;;;;;;5052988;28;20051;-75
2023/01/16 01:38:05;;;;;;;5.38;1.98;;;4.50;99.90;;;;;;5054856;28;20045;-75
2023/01/16 01:40:32;;;;;;;5.68;2.10;;;4.50;99.90;;;;;;5054356;28;20044;-75
2023/01/16 01:42:58;;;;;;;4.03;1.80;;;4.50;99.90;;;;;;5053868;28;20077;-75
2023/01/16 01:45:25;;;;;;;7.43;2.80;;;4.40;99.90;;;;;;5038153;28;20080;-75
2023/01/16 01:48:08;;;;;;;5.47;2.03;;;4.50;99.90;;;;;;5054696;28;20045;-75
2023/01/16 01:50:41;;;;;;;5.65;1.83;;;4.50;99.90;;;;;;5038411;28;20052;-76
2023/01/16 01:53:32;;;;;;;6.55;1.63;;;4.50;99.90;;;;;;5033981;28;20073;-76
2023/01/16 01:56:02;;;;;;;6.55;1.83;;;4.40;99.90;;;;;;5060069;28;20135;-75
2023/01/16 01:58:28;;;;;;;6.35;2.10;;;4.50;99.90;;;;;;5070856;28;20041;-75
2023/01/16 02:00:56;;;;;;;6.35;2.08;;;4.60;99.90;;;;;;5054529;28;20052;-75
2023/01/16 02:03:39;;;;;;;4.88;1.73;;;4.60;99.90;;;;;;5048805;28;20084;-75
2023/01/16 02:06:12;;;;;;;4.88;1.65;;;4.50;99.90;;;;;;5059530;28;20110;-75
2023/01/16 02:08:38;;;;;;;4.85;2.03;;;4.60;99.90;;;;;;5052329;28;20131;-75
2023/01/16 02:11:25;;;;;;;5.32;1.60;;;4.60;99.90;;;;;;5054216;28;20098;-76
2023/01/16 02:14:00;;;;;;;5.75;1.80;;;4.60;99.90;;;;;;5053497;28;20108;-75
2023/01/16 02:19:29;;;;;;;6.15;2.10;;;4.80;99.90;;;;;;5054436;28;20045;-76
2023/01/16 02:22:00;;;;;;;5.55;1.50;;;4.70;99.90;;;;;;5054377;28;20119;-76
2023/01/16 02:24:41;;;;;;;5.80;1.87;;;4.80;99.90;;;;;;5036899;28;20405;-76
2023/01/16 02:27:31;;;;;;;4.93;1.80;;;4.70;99.90;;;;;;5053164;28;20068;-76
2023/01/16 02:30:17;;;;;;;7.18;2.03;;;4.70;99.90;;;;;;5052945;28;20041;-76
2023/01/16 02:33:02;;;;;;;7.45;1.85;;;4.70;99.90;;;;;;5053952;28;20110;-76
2023/01/16 02:35:38;;;;;;;5.78;1.70;;;4.60;99.90;;;;;;5054198;28;20045;-76
2023/01/16 02:38:50;;;;;;;8.43;1.83;;;4.60;99.90;;;;;;5049744;28;20127;-76
2023/01/16 02:41:41;;;;;;;8.10;1.98;;;4.60;99.90;;;;;;5044794;28;20045;-76
2023/01/16 02:44:11;;;;;;;7.95;1.73;;;4.60;99.90;;;;;;5052903;28;20167;-75
2023/01/16 02:46:52;;;;;;;5.47;1.52;;;4.50;99.90;;;;;;5053082;28;20091;-75
2023/01/16 02:49:36;;;;;;;9.68;2.08;;;4.50;99.90;;;;;;5036082;28;20040;-75
2023/01/16 02:52:08;;;;;;;6.90;1.65;;;4.50;99.90;;;;;;5053630;28;20041;-75
2023/01/16 02:54:55;;;;;;;5.03;1.52;;;4.50;99.90;;;;;;5036914;28;20516;-75
2023/01/16 02:57:23;;;;;;;4.10;1.50;;;4.40;99.90;;;;;;5070120;28;20112;-75
2023/01/16 02:59:49;;;;;;;7.18;1.65;;;4.40;99.90;;;;;;5041186;28;20068;-75
2023/01/16 03:02:15;;;;;;;4.50;1.40;;;4.40;99.90;;;;;;5040942;28;20044;-75
2023/01/16 03:04:52;;;;;;;3.88;1.60;;;4.40;99.90;;;;;;5052586;28;20056;-75
2023/01/16 03:07:36;;;;;;;5.45;1.60;;;4.40;99.90;;;;;;5048487;28;20064;-75
2023/01/16 03:10:28;;;;;;;7.28;1.85;;;4.40;99.90;;;;;;5033760;28;20404;-75
2023/01/16 03:13:18;;;;;;;9.52;2.15;;;4.40;99.90;;;;;;5008880;28;20051;-75
2023/01/16 03:16:13;;;;;;;5.72;1.98;;;4.50;99.90;;;;;;5068846;28;20045;-75
2023/01/16 03:18:49;;;;;;;7.32;1.70;;;4.50;99.90;;;;;;5015006;28;20476;-75
2023/01/16 03:21:32;;;;;;;5.78;1.58;;;4.60;99.90;;;;;;5036512;28;20485;-75
2023/01/16 03:24:07;;;;;;;4.85;1.50;;;4.60;99.90;;;;;;5053271;28;20151;-76
2023/01/16 03:26:46;;;;;;;3.83;1.60;;;4.50;99.90;;;;;;5047976;28;20049;-76
2023/01/16 03:29:43;;;;;;;8.57;2.13;;;4.50;99.90;;;;;;5042172;28;20399;-76
2023/01/16 03:32:26;;;;;;;6.80;1.77;;;4.50;99.90;;;;;;5010751;28;22062;-76
2023/01/16 03:35:02;;;;;;;7.15;1.60;;;4.50;99.90;;;;;;5033801;28;20083;-76
2023/01/16 03:37:40;;;;;;;6.28;1.75;;;4.50;99.90;;;;;;5040316;28;20090;-76
2023/01/16 03:40:09;;;;;;;9.90;2.00;;;4.50;99.90;;;;;;5060936;28;20041;-76
2023/01/16 03:42:57;;;;;;;6.78;2.00;;;4.50;99.90;;;;;;5032655;28;20041;-76
2023/01/16 03:45:32;;;;;;;4.50;1.88;;;4.50;99.90;;;;;;5043833;28;20550;-76
2023/01/16 03:48:13;;;;;;;5.47;2.08;;;4.50;99.90;;;;;;5051740;28;20056;-76
2023/01/16 03:50:44;;;;;;;8.60;2.05;;;4.60;99.90;;;;;;5051667;28;20563;-76
2023/01/16 03:53:15;;;;;;;7.20;2.27;;;4.50;99.90;;;;;;5051026;28;20032;-76
2023/01/16 03:56:07;;;;;;;6.10;2.25;;;4.60;99.90;;;;;;5050513;28;20656;-76
2023/01/16 03:58:36;;;;;;;7.22;2.45;;;4.60;99.90;;;;;;5051533;28;20044;-76
2023/01/16 04:01:17;;;;;;;7.25;2.05;;;4.60;99.90;;;;;;5034527;28;20515;-75
2023/01/16 04:04:08;;;;;;;5.90;2.45;;;4.70;99.90;;;;;;5033315;28;20513;-76
2023/01/16 04:07:04;;;;;;;7.80;2.60;;;4.80;99.90;;;;;;5050380;28;20049;-76
2023/01/16 04:09:38;;;;;;;6.25;3.13;;;4.80;99.90;;;;;;5022992;28;20037;-76
2023/01/16 04:12:07;;;;;;;8.30;2.28;;;4.90;99.90;;;;;;5048963;28;20145;-76
2023/01/16 04:14:35;;;;;;;8.85;3.30;;;4.90;99.90;;;;;;5039123;28;20087;-76
2023/01/16 04:17:03;;;;;;;4.38;1.98;;;5.00;99.90;;;;;;5052079;28;20036;-76
2023/01/16 04:19:32;;;;;;;7.78;2.88;;;4.90;99.90;;;;;;5051932;28;20040;-76
2023/01/16 04:21:57;;;;;;;6.05;2.83;;;4.90;99.90;;;;;;5051944;28;20049;-76
2023/01/16 04:24:23;;;;;;;7.45;3.15;;;5.00;99.90;;;;;;5052332;28;20041;-76
2023/01/16 04:26:51;;;;;;;6.80;2.95;;;4.90;99.90;;;;;;5035808;28;20045;-76
2023/01/16 04:29:17;;;;;;;7.57;3.40;;;4.90;99.90;;;;;;5067822;28;20558;-76
2023/01/16 04:31:42;;;;;;;7.32;3.08;;;5.00;99.90;;;;;;5035386;28;20037;-76
2023/01/16 04:34:08;;;;;;;7.95;2.60;;;5.00;99.90;;;;;;5051826;28;20119;-76
2023/01/16 04:36:33;;;;;;;7.45;3.33;;;5.00;99.90;;;;;;5050769;28;20481;-76
2023/01/16 04:38:59;;;;;;;8.75;3.03;;;5.10;99.90;;;;;;5068809;28;20033;-76
2023/01/16 04:41:37;;;;;;;7.20;3.20;;;5.10;99.90;;;;;;5060598;28;20052;-76
2023/01/16 04:44:05;;;;;;;7.57;3.40;;;5.10;99.90;;;;;;5018754;28;20441;-76
2023/01/16 04:46:30;;;;;;;9.25;3.97;;;5.10;99.90;;;;;;5047301;28;20063;-76
2023/01/16 04:48:56;;;;;;;7.97;3.33;;;5.10;99.90;;;;;;5037791;28;20045;-76
2023/01/16 04:51:21;;;;;;;9.52;3.80;;;5.10;99.90;;;;;;5051987;28;20542;-76
2023/01/16 04:53:47;;;;;;;8.90;4.07;;;5.20;99.90;;;;;;5029630;28;20576;-76
2023/01/16 04:56:13;;;;;;;9.93;4.70;;;5.10;99.90;;;;;;5051730;28;20078;-76
2023/01/16 04:58:38;;;;;;;9.15;4.28;;;5.10;99.90;;;;;;5050901;28;20371;-76
2023/01/16 05:01:04;;;;;;;10.43;4.68;;;5.10;99.90;;;;;;5051489;28;20077;-76
2023/01/16 05:03:30;;;;;;;9.00;4.95;;;5.10;99.90;;;;;;5049677;28;20055;-76
2023/01/16 05:05:55;;;;;;;11.68;5.25;;;5.00;99.90;;;;;;5045671;28;20056;-76
2023/01/16 05:08:25;;;;;;;10.07;5.80;;;5.00;99.90;;;;;;5042187;28;20033;-76
2023/01/16 05:10:51;;;;;;;12.25;6.28;;;5.10;99.90;;;;;;5039814;28;20051;-76
2023/01/16 05:13:17;;;;;;;10.45;5.95;;;5.10;99.90;;;;;;5067238;28;20045;-76
2023/01/16 05:15:44;;;;;;;10.80;6.20;;;5.10;99.90;;;;;;5049678;28;20075;-77
2023/01/16 05:18:11;;;;;;;13.70;6.90;;;5.10;99.90;;;;;;5041020;28;20452;-77
2023/01/16 05:20:37;;;;;;;13.07;6.50;;;5.10;99.90;;;;;;5035035;28;20409;-77
2023/01/16 05:23:03;;;;;;;11.73;6.85;;;5.00;99.90;;;;;;5034740;28;20044;-77
2023/01/16 05:25:28;;;;;;;13.32;6.95;;;5.00;99.90;;;;;;5051390;28;20444;-77
2023/01/16 05:27:54;;;;;;;12.10;7.13;;;5.00;99.90;;;;;;5051337;28;20044;-76
2023/01/16 05:30:20;;;;;;;11.60;6.05;;;4.90;99.90;;;;;;5051290;28;20041;-76
2023/01/16 05:32:45;;;;;;;12.50;7.60;;;4.90;99.90;;;;;;5051405;28;20082;-76
2023/01/16 05:35:11;;;;;;;13.18;6.88;;;4.90;99.90;;;;;;5050618;28;20504;-76
2023/01/16 05:37:36;;;;;;;13.50;7.38;;;5.00;99.90;;;;;;5051290;28;20040;-76
2023/01/16 05:40:03;;;;;;;12.63;7.38;;;4.90;99.90;;;;;;5051882;28;20049;-76
2023/01/16 05:42:28;;;;;;;14.40;8.25;;;4.90;99.90;;;;;;5038144;28;20044;-76
2023/01/16 05:44:54;;;;;;;11.70;7.60;;;4.90;99.90;;;;;;5054828;28;20406;-76
2023/01/16 05:47:20;;;;;;;14.43;7.25;;;4.90;99.90;;;;;;5053939;28;20052;-76
2023/01/16 05:49:46;;;;;;;12.10;7.55;;;4.90;99.90;;;;;;5045701;28;20122;-75
2023/01/16 05:52:12;;;;;;;12.30;7.40;;;4.90;99.90;;;;;;5043690;28;20112;-74
2023/01/16 05:54:38;;;;;;;13.70;6.95;;;4.90;99.90;;;;;;5036726;28;20072;-74
2023/01/16 05:57:03;;;;;;;15.02;8.75;;;5.00;99.90;;;;;;5054520;28;20076;-75
2023/01/16 05:59:29;;;;;;;8.82;4.35;;;4.90;99.90;;;;;;5053758;28;20049;-75
2023/01/16 06:01:56;;;;;;;13.82;7.35;;;4.90;99.90;;;;;;5037841;28;20048;-75
2023/01/16 06:04:22;;;;;;;12.32;7.50;;;4.90;99.90;;;;;;5051388;28;20068;-75
2023/01/16 06:06:48;;;;;;;14.52;7.65;;;4.80;99.90;;;;;;5053493;28;20501;-75
2023/01/16 06:09:14;;;;;;;15.02;7.47;;;4.80;99.90;;;;;;5045271;28;20080;-75
2023/01/16 06:11:39;;;;;;;14.55;7.65;;;4.80;99.90;;;;;;5041444;28;20073;-75
2023/01/16 06:14:05;;;;;;;12.85;7.47;;;4.80;99.90;;;;;;5047757;28;20091;-75
2023/01/16 06:16:31;;;;;;;13.93;8.25;;;4.70;99.90;;;;;;5053446;28;20091;-75
2023/01/16 06:18:57;;;;;;;12.95;7.90;;;4.80;99.90;;;;;;5066824;28;20124;-75
2023/01/16 06:21:23;;;;;;;17.50;9.88;;;4.70;99.90;;;;;;5037515;28;20052;-75
2023/01/16 06:23:49;;;;;;;12.13;7.78;;;4.80;99.90;;;;;;5054091;28;20041;-75
2023/01/16 06:26:14;;;;;;;14.43;7.32;;;4.90;99.90;;;;;;5048592;28;20045;-76
2023/01/16 06:28:40;;;;;;;11.32;5.43;;;4.80;99.90;;;;;;5050638;28;20045;-76
2023/01/16 06:31:06;;;;;;;10.77;6.45;;;4.90;99.90;;;;;;5034052;28;20398;-76
2023/01/16 06:33:32;;;;;;;11.55;5.43;;;4.80;99.90;;;;;;5033979;28;20041;-76
2023/01/16 06:35:58;;;;;;;14.30;6.78;;;4.90;99.90;;;;;;5065124;28;20063;-76
2023/01/16 06:38:23;;;;;;;10.13;5.50;;;4.90;99.90;;;;;;5053230;28;20041;-76
2023/01/16 06:40:49;;;;;;;16.15;10.02;;;4.90;99.90;;;;;;5053800;28;20041;-76
2023/01/16 06:43:16;;;;;;;13.43;5.43;;;4.90;99.90;;;;;;5054198;28;20033;-76
2023/01/16 06:45:44;;;;;;;9.40;5.88;;;5.00;99.90;;;;;;5053747;28;20053;-76
2023/01/16 06:48:10;;;;;;;9.15;5.15;;;4.90;99.90;;;;;;5053970;28;20041;-76
2023/01/16 06:50:36;;;;;;;9.70;4.70;;;4.90;99.90;;;;;;5052909;28;20037;-76
2023/01/16 06:53:01;;;;;;;10.93;4.78;;;4.90;99.90;;;;;;5042302;28;20040;-76
2023/01/16 06:55:27;;;;;;;8.52;5.10;;;4.90;99.90;;;;;;5047514;28;20071;-76
2023/01/16 06:57:53;;;;;;;12.27;5.32;;;4.80;99.90;;;;;;5053657;28;20572;-76
2023/01/16 07:00:18;;;;;;;10.15;4.60;;;4.80;99.90;;;;;;5022429;28;20041;-76
2023/01/16 07:02:51;;;;;;;16.38;6.38;;;4.70;99.90;;;;;;5019356;28;20121;-76
2023/01/16 07:05:17;;;;;;;10.60;4.90;;;4.60;99.90;;;;;;5044646;28;20052;-76
2023/01/16 07:07:42;;;;;;;10.95;6.10;;;4.60;99.90;;;;;;5035346;28;20047;-76
2023/01/16 07:10:09;;;;;;;10.13;4.60;;;4.60;99.90;;;;;;5051637;28;20037;-76
2023/01/16 07:12:34;;;;;;;10.93;4.65;;;4.60;99.90;;;;;;5050634;28;20040;-76
2023/01/16 07:23:33;;;;;;;10.40;4.60;;;4.40;99.90;;;;;;5045135;28;20045;-76
2023/01/16 07:26:02;;;;;;;10.40;4.43;;;4.40;99.90;;;;;;5067087;28;20056;-76
2023/01/16 07:28:28;;;;;;;8.40;4.32;;;4.30;99.90;;;;;;5052843;28;20528;-76
2023/01/16 07:30:56;;;;;;;12.02;4.90;;;4.30;99.90;;;;;;5048859;28;20091;-76
2023/01/16 07:33:23;;;;;;;11.27;4.70;;;4.30;99.90;;;;;;5052754;28;20048;-76
2023/01/16 07:35:48;;;;;;;12.07;4.63;;;4.20;99.90;;;;;;5040335;28;20037;-76
2023/01/16 07:38:14;;;;;;;13.07;5.43;;;4.20;99.90;;;;;;5052671;28;20492;-76
2023/01/16 07:40:40;;;;;;;11.75;5.88;;;4.10;99.90;;;;;;5020512;28;20033;-76
2023/01/16 07:43:06;;;;;;;12.07;5.43;;;4.10;99.90;;;;;;5052486;28;20124;-76
2023/01/16 07:45:32;;;;;;;10.60;4.85;;;4.10;99.90;;;;;;5040268;28;20045;-76
2023/01/16 07:48:00;;;;;;;10.25;5.03;;;4.10;99.90;;;;;;5035493;28;20095;-76
2023/01/16 07:50:25;;;;;;;10.43;5.20;;;4.20;99.90;;;;;;5046060;28;20057;-76
2023/01/16 07:52:51;;;;;;;10.75;5.47;;;4.20;99.90;;;;;;5052470;28;20397;-76
2023/01/16 07:55:16;;;;;;;12.13;6.88;;;4.20;99.90;;;;;;5051035;28;20036;-76
2023/01/16 07:57:42;;;;;;;9.55;5.18;;;4.30;99.90;;;;;;5068527;28;20053;-76
2023/01/16 08:00:10;;;;;;;9.82;4.75;;;4.20;99.90;;;;;;5068024;28;20041;-76
2023/01/16 08:02:36;;;;;;;9.85;4.35;;;4.20;99.90;;;;;;5035804;28;20476;-76
2023/01/16 08:05:02;;;;;;;7.32;3.05;;;4.20;99.90;;;;;;5052184;28;20504;-76
2023/01/16 08:07:28;;;;;;;11.32;4.05;;;4.40;99.90;;;;;;5052197;28;20068;-76
2023/01/16 08:09:53;;;;;;;7.10;3.30;;;4.50;99.90;;;;;;5054703;28;20041;-76
2023/01/16 08:12:19;;;;;;;9.30;3.80;;;4.40;99.90;;;;;;5052699;28;20037;-76
2023/01/16 08:14:45;;;;;;;9.18;3.58;;;4.50;99.90;;;;;;5050631;28;20040;-76
2023/01/16 08:17:10;;;;;;;8.70;4.70;;;4.50;99.90;;;;;;5047767;28;20037;-76
2023/01/16 08:19:36;;;;;;;10.65;4.88;;;4.50;99.90;;;;;;5053141;28;20387;-76
2023/01/16 08:22:02;;;;;;;9.68;4.22;;;4.50;99.90;;;;;;5044299;28;20051;-76
2023/01/16 08:24:28;;;;;;;9.30;3.85;;;4.40;99.90;;;;;;5051243;28;20053;-76
2023/01/16 08:26:55;;;;;;;10.00;4.30;;;4.30;99.90;;;;;;5039489;28;20124;-76
2023/01/16 08:29:21;;;;;;;8.73;3.92;;;4.50;99.90;;;;;;5048203;28;20048;-76
2023/01/16 08:31:47;;;;;;;11.77;4.75;;;4.40;99.90;;;;;;5052189;28;20485;-76
2023/01/16 08:34:12;;;;;;;9.63;4.07;;;4.40;99.90;;;;;;5059409;28;20049;-76
2023/01/16 08:36:38;;;;;;;11.52;4.72;;;4.40;99.90;;;;;;5034825;28;20118;-76
2023/01/16 08:39:04;;;;;;;8.02;3.75;;;4.40;99.90;;;;;;5042500;28;20036;-76
2023/01/16 08:52:36;;;;;;;10.68;4.13;;;4.40;99.90;;;;;;5041824;28;20076;-77
2023/01/16 08:55:03;;;;;;;7.43;3.50;;;4.40;99.90;;;;;;5043092;28;20041;-76
2023/01/16 08:57:29;;;;;;;7.50;3.72;;;4.50;99.90;;;;;;5033691;28;20124;-77
2023/01/16 08:59:58;;;;;;;8.23;3.08;;;4.50;99.90;;;;;;5043557;28;20123;-76
2023/01/16 09:02:25;;;;;;;7.75;3.53;;;4.50;99.90;;;;;;5032722;28;20505;-77
2023/01/16 09:04:51;;;;;;;9.30;3.40;;;4.50;99.90;;;;;;5048382;28;20135;-76
2023/01/16 09:07:16;;;;;;;10.85;3.70;;;4.50;99.90;;;;;;5049689;28;20140;-77
2023/01/16 09:09:42;;;;;;;9.15;3.80;;;4.40;99.90;;;;;;5048902;28;20041;-76
2023/01/16 09:14:57;;;;;;;7.47;3.40;;;4.50;99.90;;;;;;5049972;28;20045;-76
2023/01/16 09:17:24;;;;;;;7.57;2.97;;;4.50;99.90;;;;;;5044760;28;20104;-76
2023/01/16 09:19:49;;;;;;;7.40;4.25;;;4.50;99.90;;;;;;5031902;28;20546;-76
2023/01/16 09:22:15;;;;;;;10.57;3.45;;;4.50;99.90;;;;;;5061529;28;20119;-76
2023/01/16 09:24:41;;;;;;;9.43;2.80;;;4.60;99.90;;;;;;5053832;28;20045;-76
2023/01/16 09:27:06;;;;;;;5.60;2.60;;;4.60;99.90;;;;;;5047896;28;20095;-76
2023/01/16 09:29:32;;;;;;;6.72;3.08;;;4.60;99.90;;;;;;5052305;28;20044;-76
2023/01/16 09:31:58;;;;;;;7.93;3.10;;;4.60;99.90;;;;;;5051385;28;20041;-76
2023/01/16 09:34:24;;;;;;;7.05;3.03;;;4.60;99.90;;;;;;5036549;28;20038;-76
2023/01/16 09:36:50;;;;;;;6.25;2.70;;;4.60;99.90;;;;;;5028105;28;20076;-76
2023/01/16 09:39:17;;;;;;;6.80;2.58;;;4.60;99.90;;;;;;5046629;28;20104;-76
2023/01/16 09:44:41;;;;;;;5.93;2.50;;;4.70;99.90;;;;;;5038868;28;20058;-76
2023/01/16 09:47:08;;;;;;;6.45;2.35;;;4.70;99.90;;;;;;5054138;28;20055;-76
2023/01/16 09:49:49;;;;;;;6.35;3.00;;;4.60;99.90;;;;;;5044306;28;20049;-76
2023/01/16 10:00:49;;;;;;;9.75;2.80;;;4.70;99.90;;;;;;5046594;28;20049;-76
2023/01/16 10:03:15;;;;;;;5.00;2.30;;;4.60;99.90;;;;;;5036505;28;20041;-68
2023/01/16 10:06:04;;;;;;;6.72;2.88;;;4.70;99.90;;;;;;5051011;28;20055;-76
2023/01/16 10:08:45;;;;;;;6.22;2.50;;;4.70;99.90;;;;;;5052045;28;20191;-76
2023/01/16 10:11:22;;;;;;;5.00;2.08;;;4.70;99.90;;;;;;5053214;28;20089;-76
2023/01/16 10:14:04;;;;;;;6.57;2.10;;;4.80;99.90;;;;;;5037854;28;20041;-76
2023/01/16 10:16:51;;;;;;;7.25;3.22;;;4.80;99.90;;;;;;5049279;28;20071;-71
2023/01/16 10:19:40;;;;;;;5.88;1.95;;;4.80;99.90;;;;;;5045841;28;20124;-75
2023/01/16 10:22:24;;;;;;;5.47;2.03;;;4.90;99.90;;;;;;5050220;28;20090;-75
2023/01/16 10:25:15;;;;;;;3.22;1.60;;;4.90;99.90;;;;;;5069164;28;20049;-75
2023/01/16 10:28:04;;;;;;;5.43;1.80;;;4.90;99.90;;;;;;5030796;28;20611;-75
2023/01/16 10:30:46;;;;;;;5.30;2.33;;;4.80;99.90;;;;;;5041924;28;20043;-75
2023/01/16 10:33:18;;;;;;;4.47;1.90;;;4.80;99.90;;;;;;5052563;28;20493;-75
2023/01/16 10:35:47;;;;;;;4.90;1.60;;;4.80;99.90;;;;;;5066421;28;20055;-75
2023/01/16 10:38:29;;;;;;;4.30;1.33;;;4.80;99.90;;;;;;5038291;28;20375;-75
2023/01/16 10:40:56;;;;;;;4.65;1.50;;;4.90;99.90;;;;;;5035557;28;20104;-75
2023/01/16 10:49:26;;;;;;;4.80;1.70;;;4.80;99.90;;;;;;5049185;28;20045;-75
2023/01/16 10:51:52;;;;;;;2.60;1.10;;;4.80;99.90;;;;;;5038008;28;20383;-76
2023/01/16 10:54:18;;;;;;;3.63;1.40;;;4.90;99.90;;;;;;5054064;28;20052;-75
2023/01/16 10:56:43;;;;;;;2.85;1.33;;;4.80;99.90;;;;;;5045044;28;20396;-76
2023/01/16 10:59:11;;;;;;;1.70;1.05;;;4.80;99.90;;;;;;5048916;28;20512;-77
2023/01/16 11:01:39;;;;;;;3.50;1.50;;;4.70;99.90;;;;;;5051957;28;20052;-77
2023/01/16 11:04:06;;;;;;;4.45;1.40;;;4.70;99.90;;;;;;5052210;28;20110;-76
2023/01/16 11:06:31;;;;;;;2.88;1.20;;;4.70;99.90;;;;;;5051528;28;20045;-77
2023/01/16 11:09:19;;;;;;;2.67;1.30;;;4.70;99.90;;;;;;5054270;28;20086;-76
2023/01/16 11:20:10;;;;;;;1.75;1.20;;;4.60;99.90;;;;;;5047695;28;20045;-77
2023/01/16 11:22:39;;;;;;;2.38;1.20;;;4.60;99.90;;;;;;5057813;28;20442;-77
2023/01/16 11:25:12;;;;;;;3.30;1.20;;;4.60;99.90;;;;;;5052398;28;20052;-77
2023/01/16 11:27:38;;;;;;;5.10;1.75;;;4.60;99.90;;;;;;5039527;28;20040;-77
2023/01/16 11:30:14;;;;;;;1.95;1.13;;;4.60;99.90;;;;;;5035430;28;20045;-77
2023/01/16 11:32:47;;;;;;;3.22;1.38;;;4.60;99.90;;;;;;5061487;28;20304;-77
2023/01/16 11:35:15;;;;;;;4.05;1.50;;;4.60;99.90;;;;;;5072287;28;20044;-78
2023/01/16 11:37:44;;;;;;;3.15;1.50;;;4.60;99.90;;;;;;5055010;28;20039;-78
2023/01/16 11:40:19;;;;;;;3.30;1.35;;;4.50;99.90;;;;;;5032478;28;20490;-78
2023/01/16 11:46:11;;;;;;;4.20;1.75;;;4.60;99.90;;;;;;5047699;28;20049;-78
2023/01/16 11:48:42;;;;;;;4.95;1.52;;;4.60;99.90;;;;;;5048790;28;20433;-77
2023/01/16 11:51:21;;;;;;;4.05;1.50;;;4.60;99.90;;;;;;5063090;28;20041;-77
2023/01/16 11:53:49;;;;;;;2.15;1.17;;;4.60;99.90;;;;;;5052030;28;20465;-78
2023/01/16 11:56:39;;;;;;;3.10;1.42;;;4.70;99.90;;;;;;5045256;28;20050;-78
2023/01/16 11:59:48;;;;;;;4.32;1.58;;;4.70;99.90;;;;;;5039820;28;20087;-77
2023/01/16 12:02:39;;;;;;;3.55;1.30;;;4.70;99.90;;;;;;5050151;28;20175;-77
2023/01/16 12:08:55;;;;;;;2.63;1.38;;;4.70;99.90;;;;;;5064116;28;20493;-77
2023/01/16 12:11:38;;;;;;;2.38;1.40;;;4.80;99.90;;;;;;5031177;28;20550;-77
2023/01/16 12:14:17;;;;;;;2.33;1.40;;;4.70;99.90;;;;;;5046010;28;20055;-77
2023/01/16 12:17:13;;;;;;;3.20;1.30;;;4.80;99.90;;;;;;5046121;28;20048;-77
2023/01/16 12:20:08;;;;;;;2.00;1.30;;;4.80;99.90;;;;;;5051863;28;20405;-78
2023/01/16 12:22:49;;;;;;;2.65;1.58;;;4.80;99.90;;;;;;5063777;28;20068;-78
2023/01/16 12:25:32;;;;;;;2.30;1.30;;;4.70;99.90;;;;;;5045135;28;20052;-77
2023/01/16 12:28:01;;;;;;;3.83;1.45;;;4.70;99.90;;;;;;5047097;28;20140;-78
2023/01/16 12:30:47;;;;;;;4.05;1.52;;;4.70;99.90;;;;;;5034726;28;20094;-78
2023/01/16 12:33:27;;;;;;;5.38;1.85;;;4.90;99.90;;;;;;5042568;28;20049;-77
2023/01/16 12:35:58;;;;;;;2.47;1.40;;;4.80;99.90;;;;;;5047942;28;20045;-77
2023/01/16 12:38:40;;;;;;;4.13;1.40;;;4.90;99.90;;;;;;5051161;28;20052;-78
2023/01/16 12:44:11;;;;;;;2.92;1.50;;;4.80;99.90;;;;;;5050186;28;20045;-78
2023/01/16 12:46:56;;;;;;;4.50;1.52;;;4.90;99.90;;;;;;5032053;28;20046;-77
2023/01/16 12:49:39;;;;;;;5.35;1.73;;;4.90;99.90;;;;;;5037575;28;20049;-78
2023/01/16 12:52:17;;;;;;;2.60;1.40;;;5.00;99.90;;;;;;5052125;28;20040;-77
2023/01/16 12:54:54;;;;;;;3.13;1.40;;;5.10;99.90;;;;;;5053339;28;20574;-78
2023/01/16 12:57:56;;;;;;;4.15;1.52;;;5.00;99.90;;;;;;5054247;28;20538;-78
2023/01/16 13:00:31;;;;;;;3.90;1.42;;;5.10;99.90;;;;;;5053396;28;20049;-77
2023/01/16 13:03:25;;;;;;;3.83;1.60;;;5.10;99.90;;;;;;5064955;28;20052;-77
2023/01/16 13:05:53;;;;;;;3.28;1.70;;;5.20;99.90;;;;;;5038113;28;20501;-78
2023/01/16 13:08:25;;;;;;;2.78;1.30;;;5.10;99.90;;;;;;5036368;28;20045;-78
2023/01/16 13:13:54;;;;;;;2.47;1.40;;;5.20;99.90;;;;;;5056041;28;20049;-77
2023/01/16 13:16:31;;;;;;;4.22;1.60;;;5.10;99.90;;;;;;5034949;28;20050;-77
2023/01/16 13:19:03;;;;;;;1.52;0.88;;;5.20;99.90;;;;;;5052032;28;20416;-78
2023/01/16 13:21:34;;;;;;;3.53;1.27;;;5.10;99.90;;;;;;5054863;28;20053;-78
2023/01/16 13:24:23;;;;;;;2.47;0.90;;;5.20;99.90;;;;;;5047944;28;20068;-78
2023/01/16 13:26:55;;;;;;;4.15;1.15;;;5.20;99.90;;;;;;5051474;28;20062;-78
2023/01/16 13:29:37;;;;;;;2.75;1.10;;;5.30;99.90;;;;;;5054005;28;20041;-78
2023/01/16 13:32:25;;;;;;;3.20;1.30;;;5.40;99.90;;;;;;5054635;28;20053;-77
2023/01/16 13:35:09;;;;;;;3.13;1.05;;;5.30;99.90;;;;;;5052221;28;20048;-77
2023/01/16 13:38:02;;;;;;;3.72;1.48;;;5.30;99.90;;;;;;5035775;28;20041;-78
2023/01/16 13:41:03;;;;;;;2.72;1.55;;;5.30;99.90;;;;;;5034131;28;20036;-77
2023/01/16 13:46:19;;;;;;;2.75;1.15;;;5.30;99.90;;;;;;5052368;28;20560;-78
2023/01/16 13:48:51;;;;;;;3.47;1.40;;;5.30;99.90;;;;;;5045252;28;20067;-78
2023/01/16 13:51:20;;;;;;;2.85;1.23;;;5.30;99.90;;;;;;5053237;28;20037;-78
2023/01/16 13:53:50;;;;;;;3.63;1.20;;;5.30;99.90;;;;;;5051762;28;20037;-78
2023/01/16 13:56:20;;;;;;;3.45;1.40;;;5.30;99.90;;;;;;5034469;28;20072;-77
2023/01/16 13:58:53;;;;;;;3.70;1.60;;;5.40;99.90;;;;;;5047142;28;20128;-78
2023/01/16 14:01:44;;;;;;;2.53;1.58;;;5.40;99.90;;;;;;5053410;28;20478;-77
2023/01/16 14:04:32;;;;;;;3.30;1.25;;;5.30;99.90;;;;;;5037513;28;20061;-77
2023/01/16 14:10:10;;;;;;;2.03;1.20;;;5.50;99.90;;;;;;5052653;28;20040;-78
2023/01/16 14:12:59;;;;;;;3.72;1.20;;;5.40;99.90;;;;;;5052993;28;20067;-77
2023/01/16 14:18:20;;;;;;;4.53;1.50;;;5.40;99.90;;;;;;5033919;28;20057;-78
2023/01/16 14:21:00;;;;;;;5.35;2.22;;;5.40;99.90;;;;;;5046033;28;20068;-77
2023/01/16 14:26:22;;;;;;;3.35;1.55;;;5.40;99.90;;;;;;5052476;28;20135;-77
2023/01/16 14:28:51;;;;;;;2.90;1.27;;;5.30;99.90;;;;;;5037107;28;20401;-77
2023/01/16 14:31:26;;;;;;;3.00;1.30;;;5.30;99.90;;;;;;5043482;28;20048;-77
2023/01/16 14:33:55;;;;;;;2.42;1.05;;;5.30;99.90;;;;;;5066635;28;20124;-78